Terminal Aerodrome Forecast
Issued by NWS Denver/Boulder, CO

Home | Current Version | Previous Version | Text Only | Print | Product List | Glossary On
Versions: 1 2 3 4 5 6 7 8 9 10 11 12 13 14 15 16 17 18 19 20 21 22 23 24 25 26 27 28 29 30 31 32 33 34 35 36 37 38
000
FTUS45 KBOU 200440 AAB
TAFDEN
TAF AMD
KDEN 200440Z 2005/2106 25011KT P6SM VCSH SCT080 BKN110 OVC130
      TEMPO 2005/2006 -SHRA BKN060 BKN080
     FM200700 22009KT P6SM FEW090 SCT120 BKN200
     FM201600 29007KT P6SM SCT120 BKN200
     FM201800 36010KT P6SM SCT080 SCT120
     FM202100 02012KT P6SM SCT080 BKN120
     FM210200 15008KT P6SM SCT080 BKN120=

USA.gov is the U.S. government's official web portal to all federal, state and local government web resources and services.